Jonesville, New York
Current Conditions -  °F | °C
As of 6:51 AM on Tuesday 27 Jan 2015 (Local Time) from KALB Reporting Station
Light Snow Light Snow  
Wind Chill: -1°   Ceiling: 6500
Heat Index: 13°   Visibility: 9mi
Dew Point:   Wind: 12mph
Humidity: 62%   Direction: 350°N
Pressure: 29.83"   Gusts: NA
Location:  42.8536°N, 73.7851°W
Report Text: KALB 271151Z 35010KT 9SM -SN OVC065 M11/M17 A2983 RMK AO2 SLP105 PCPN VRY LGT 4/001 P0000 60000 70002 T11061167 11083 21106 56014
Loading
Personal Weather Stations






























Interactive Weather Map New forecast layout! Learn more

10-Day Weather Forecast

Advertisements
Track Severe Weather on mobile